createdAt,value
2017-12-04T06:35:24.538Z,29.52
2017-12-04T06:37:52.088Z,23.25
2017-12-04T06:40:19.575Z,21.40
2017-12-04T06:42:47.082Z,22.40
2017-12-04T06:45:15.343Z,24.85
2017-12-04T06:47:42.871Z,26.25
2017-12-04T06:50:10.383Z,22.52
2017-12-04T06:52:38.645Z,22.23
2017-12-04T06:55:06.146Z,32.45
2017-12-04T06:57:33.666Z,23.85
2017-12-04T07:00:01.996Z,29.45
2017-12-04T07:02:29.499Z,20.52
2017-12-04T07:04:56.990Z,19.52
2017-12-04T07:07:24.531Z,23.30
2017-12-04T07:09:52.793Z,18.92
2017-12-04T07:12:20.296Z,20.33
2017-12-04T07:14:47.831Z,19.52
2017-12-04T07:17:15.340Z,22.87
2017-12-04T07:19:42.885Z,21.58
2017-12-04T07:22:10.422Z,25.30
2017-12-04T07:24:45.512Z,23.33
2017-12-04T07:27:13.047Z,17.23
2017-12-04T07:29:40.615Z,22.35
2017-12-04T07:32:08.140Z,16.65
2017-12-04T07:34:35.622Z,18.75
2017-12-04T07:37:03.138Z,19.87
2017-12-04T07:39:31.432Z,21.05
2017-12-04T07:41:58.962Z,26.17
2017-12-04T07:44:27.211Z,22.33
2017-12-04T07:46:54.695Z,19.08
2017-12-04T07:49:22.947Z,20.23
2017-12-04T07:51:50.418Z,14.50
2017-12-04T07:54:17.926Z,17.15
2017-12-04T07:56:45.468Z,25.33
2017-12-04T07:59:12.978Z,12.63
2017-12-04T08:02:01.937Z,12.02
2017-12-04T08:04:35.523Z,9.68
2017-12-04T08:07:03.013Z,14.55
2017-12-04T08:09:31.533Z,15.98
2017-12-04T09:15:04.586Z,19.70
2017-12-04T09:17:32.089Z,16.73
2017-12-04T09:19:59.617Z,13.93
2017-12-04T09:22:27.135Z,16.48
2017-12-04T09:24:55.559Z,18.05
2017-12-04T09:27:23.063Z,15.43
2017-12-04T09:29:50.575Z,12.73
2017-12-04T09:32:18.080Z,14.77
2017-12-04T09:34:45.636Z,11.12
2017-12-04T09:37:13.196Z,8.10
2017-12-04T09:39:40.757Z,10.73
2017-12-04T09:42:08.301Z,10.90
2017-12-04T09:44:35.873Z,11.77
2017-12-04T09:47:03.382Z,10.38
2017-12-04T09:49:30.884Z,13.62
2017-12-04T09:51:58.382Z,13.85
2017-12-04T09:54:25.934Z,48.58
2017-12-04T09:56:53.501Z,23.67
2017-12-04T09:59:21.059Z,19.90
2017-12-04T10:01:48.646Z,8.68
2017-12-04T10:11:34.731Z,5.95
2017-12-04T10:14:02.272Z,11.12
2017-12-04T10:16:30.520Z,8.93
2017-12-04T10:18:58.059Z,6.57
2017-12-04T10:21:25.559Z,15.38
2017-12-04T10:23:54.446Z,5.18
2017-12-04T10:26:22.687Z,8.65
2017-12-04T10:28:50.202Z,7.80
2017-12-04T10:31:17.734Z,14.20
2017-12-04T10:33:45.240Z,12.23
2017-12-04T10:36:12.755Z,13.82
2017-12-04T10:38:41.039Z,29.83
2017-12-04T10:41:09.347Z,34.42
2017-12-04T10:43:36.842Z,21.37
2017-12-04T10:49:07.690Z,14.55
2017-12-04T10:51:35.202Z,15.93
2017-12-04T10:54:03.471Z,12.90
2017-12-04T10:56:31.018Z,12.13
2017-12-04T10:58:58.475Z,9.88
2017-12-04T11:01:25.989Z,13.40
2017-12-04T11:03:53.502Z,19.87
2017-12-04T11:06:20.990Z,14.80
2017-12-04T11:08:54.382Z,12.32
2017-12-04T11:11:21.885Z,8.00
2017-12-04T11:13:49.350Z,10.05
2017-12-04T11:16:16.862Z,7.62
2017-12-04T11:18:45.104Z,10.25
2017-12-04T11:21:13.341Z,9.85
2017-12-04T11:23:40.830Z,7.35
2017-12-04T11:26:09.102Z,11.82
2017-12-04T11:28:36.647Z,7.03
2017-12-04T11:31:04.114Z,7.18
2017-12-04T11:33:31.674Z,9.63
2017-12-04T11:35:59.172Z,9.60
2017-12-04T11:38:26.715Z,12.07
2017-12-04T11:40:54.186Z,6.62
2017-12-04T11:43:21.707Z,11.98
2017-12-04T11:45:49.256Z,17.02
2017-12-04T11:48:16.771Z,11.30
2017-12-04T11:50:44.308Z,10.95
2017-12-04T11:53:11.845Z,11.55
2017-12-04T11:55:39.331Z,6.45
2017-12-04T11:58:06.802Z,9.73
2017-12-04T12:00:34.287Z,12.15
2017-12-04T12:03:01.802Z,8.05
2017-12-04T12:05:29.294Z,12.10
2017-12-04T12:07:56.842Z,13.27
2017-12-04T12:10:24.336Z,8.02
2017-12-04T12:12:51.904Z,10.15
2017-12-04T12:15:19.381Z,6.12
2017-12-04T12:17:47.662Z,12.45
2017-12-04T12:20:15.951Z,9.48
2017-12-04T12:22:43.517Z,8.20
2017-12-04T12:25:10.996Z,7.85
2017-12-04T12:27:38.473Z,7.62
2017-12-04T12:30:05.954Z,10.98
2017-12-04T12:32:33.439Z,9.10
2017-12-04T12:35:00.922Z,12.37
2017-12-04T12:37:28.409Z,8.38
2017-12-04T12:39:55.970Z,11.38
2017-12-04T12:42:23.461Z,12.73
2017-12-04T12:44:51.741Z,7.50
2017-12-04T12:47:20.016Z,7.97
2017-12-04T12:49:48.326Z,8.30
2017-12-04T12:52:15.837Z,9.48
2017-12-04T12:54:44.074Z,12.57
2017-12-04T12:57:11.597Z,6.55
2017-12-04T12:59:39.094Z,12.43
2017-12-04T13:02:06.599Z,15.30
2017-12-04T13:04:34.871Z,12.18
2017-12-04T13:07:03.159Z,12.57
2017-12-04T13:09:30.661Z,9.30
2017-12-04T13:11:58.222Z,13.30
2017-12-04T13:14:25.709Z,14.93
2017-12-04T13:16:53.230Z,13.52
2017-12-04T13:19:20.786Z,14.07
2017-12-04T13:21:48.323Z,12.48
2017-12-04T13:24:16.569Z,11.48
2017-12-04T13:26:44.126Z,14.57
2017-12-04T13:29:11.662Z,11.18
2017-12-04T13:31:39.141Z,14.70
2017-12-04T13:34:18.225Z,7.43
2017-12-04T13:36:51.187Z,9.40
2017-12-04T13:39:18.664Z,9.50
2017-12-04T13:41:46.171Z,20.15
2017-12-04T13:44:13.683Z,8.52
2017-12-04T13:46:41.198Z,11.38
2017-12-04T13:49:08.706Z,12.90
2017-12-04T13:51:36.194Z,7.18
2017-12-04T13:54:03.703Z,11.55
2017-12-04T13:56:31.191Z,10.27
2017-12-04T13:58:58.694Z,11.15
2017-12-04T14:01:26.979Z,10.70
2017-12-04T14:03:55.239Z,6.85
2017-12-04T14:06:22.762Z,9.60
2017-12-04T14:08:50.372Z,11.07
2017-12-04T14:11:18.682Z,8.32
2017-12-04T14:13:46.167Z,7.87
2017-12-04T14:16:14.347Z,7.53
2017-12-04T14:18:41.855Z,10.48
2017-12-04T14:21:09.405Z,10.52
2017-12-04T14:23:37.671Z,3.85
2017-12-04T14:26:05.923Z,13.75
2017-12-04T14:28:33.480Z,14.13
2017-12-04T14:31:00.999Z,12.85
2017-12-04T14:33:29.512Z,13.50
2017-12-04T14:35:57.029Z,15.50
2017-12-04T14:38:24.584Z,10.77
2017-12-04T14:40:52.140Z,15.82
2017-12-04T14:43:19.670Z,10.93
2017-12-04T14:45:47.160Z,10.55
2017-12-04T14:48:14.695Z,13.45
2017-12-04T14:50:42.202Z,11.05
2017-12-04T14:53:09.675Z,11.50
2017-12-04T14:55:37.195Z,15.88
2017-12-04T14:58:04.743Z,21.17
2017-12-04T15:00:32.985Z,22.50
2017-12-04T15:03:00.505Z,16.20
2017-12-04T15:05:27.994Z,15.45
2017-12-04T15:07:55.547Z,19.30
2017-12-04T15:10:23.020Z,13.20
2017-12-04T15:12:50.573Z,22.25
2017-12-04T15:15:18.075Z,19.02
2017-12-04T15:17:45.561Z,14.50
2017-12-04T15:20:13.043Z,16.85
2017-12-04T15:22:40.551Z,15.70
2017-12-04T15:25:08.802Z,22.62
2017-12-04T15:27:36.325Z,20.55
2017-12-04T15:30:03.854Z,15.35
2017-12-04T15:32:31.366Z,15.13
2017-12-04T15:34:58.885Z,19.00
2017-12-04T15:37:26.372Z,18.80
2017-12-04T15:39:53.860Z,18.42
2017-12-04T15:42:22.143Z,20.02
2017-12-04T15:44:50.406Z,18.35
2017-12-04T15:47:18.693Z,15.88
2017-12-04T15:49:46.187Z,16.05
2017-12-04T15:52:13.728Z,18.25
2017-12-04T15:54:41.263Z,13.45
2017-12-04T15:57:08.810Z,21.73
2017-12-04T15:59:36.289Z,26.77
2017-12-04T16:02:04.561Z,15.45
2017-12-04T16:04:32.851Z,21.33
2017-12-04T16:07:01.135Z,23.48
2017-12-04T16:09:28.676Z,15.15
2017-12-04T16:11:56.972Z,30.15
2017-12-04T16:14:24.519Z,22.67
2017-12-04T16:16:52.844Z,21.95
2017-12-04T16:19:20.399Z,19.83
2017-12-04T16:21:47.918Z,19.30
2017-12-04T16:24:16.187Z,20.37
2017-12-04T16:26:43.713Z,24.77
2017-12-04T16:29:11.202Z,24.35
2017-12-04T16:31:38.750Z,21.35
2017-12-04T16:34:06.238Z,23.35
2017-12-04T16:36:33.707Z,23.83
2017-12-04T16:39:01.206Z,19.17
2017-12-04T16:41:28.761Z,24.92
2017-12-04T16:43:56.270Z,19.98
2017-12-04T16:46:23.786Z,30.58
2017-12-04T16:48:51.918Z,26.12
2017-12-04T16:51:19.466Z,25.20
2017-12-04T16:53:53.153Z,25.30
2017-12-04T16:56:20.704Z,24.70
2017-12-04T16:58:48.959Z,23.27
2017-12-04T17:01:16.476Z,23.85
2017-12-04T17:03:43.997Z,32.17
2017-12-04T17:06:12.276Z,25.10
2017-12-04T17:08:40.556Z,21.70
2017-12-04T17:11:08.822Z,24.45
2017-12-04T17:13:36.326Z,31.58
2017-12-04T17:16:03.858Z,27.67
2017-12-04T17:18:32.119Z,27.58
2017-12-04T17:21:00.428Z,23.58
2017-12-04T17:23:27.977Z,25.15
2017-12-04T17:25:55.735Z,26.95
2017-12-04T17:28:23.516Z,21.35
2017-12-04T17:30:51.376Z,35.40
2017-12-04T17:33:39.183Z,31.05
2017-12-04T17:36:06.737Z,23.23
2017-12-04T17:38:34.223Z,21.42
2017-12-04T17:41:01.765Z,24.77
2017-12-04T17:43:29.291Z,22.58
2017-12-04T17:45:56.846Z,25.50
2017-12-04T17:48:24.343Z,24.55
2017-12-04T17:50:52.620Z,24.50
2017-12-04T17:53:20.919Z,28.20
2017-12-04T17:55:48.434Z,21.58
2017-12-04T17:58:15.934Z,24.37
2017-12-04T18:00:43.477Z,29.95
2017-12-04T18:03:11.774Z,23.38
2017-12-04T18:05:39.343Z,28.65
2017-12-04T18:08:06.844Z,26.23
2017-12-04T18:10:34.362Z,30.95
2017-12-04T18:13:01.854Z,24.33
2017-12-04T18:15:29.349Z,21.35
2017-12-04T18:17:57.615Z,30.65
2017-12-04T18:20:25.149Z,24.90
2017-12-04T18:22:53.314Z,24.00
2017-12-04T18:25:20.901Z,27.55
2017-12-04T18:27:48.509Z,31.12
2017-12-04T18:30:16.166Z,29.08
2017-12-04T18:32:43.820Z,35.90
2017-12-04T18:35:11.413Z,22.60
2017-12-04T18:37:39.018Z,30.17
2017-12-04T18:40:07.361Z,30.02
2017-12-04T18:42:34.971Z,29.70
2017-12-04T18:45:02.587Z,26.33
2017-12-04T18:47:30.178Z,31.73
2017-12-04T18:49:58.634Z,25.98
2017-12-04T18:52:26.275Z,34.35
2017-12-04T18:54:53.965Z,26.15
2017-12-04T18:57:21.743Z,31.62
2017-12-04T18:59:49.376Z,23.05
2017-12-04T19:02:17.127Z,37.13
2017-12-04T19:04:44.766Z,40.90
2017-12-04T19:07:18.097Z,27.35
2017-12-04T19:09:47.185Z,29.42
2017-12-04T22:25:50.817Z,29.42
2017-12-04T22:28:18.359Z,35.08
2017-12-04T22:30:45.867Z,28.40
2017-12-04T22:33:14.142Z,19.75
2017-12-04T22:35:42.392Z,27.40
2017-12-04T22:38:09.875Z,30.95
2017-12-04T22:40:38.162Z,30.92
2017-12-04T22:43:05.636Z,34.58
2017-12-04T22:45:33.135Z,30.25
2017-12-04T22:48:00.635Z,29.20
2017-12-04T22:50:28.183Z,28.45
2017-12-04T22:52:57.226Z,25.42
2017-12-04T22:55:24.727Z,22.92
2017-12-04T22:57:53.365Z,22.95
2017-12-04T23:00:30.548Z,25.35
2017-12-04T23:02:58.875Z,29.00
2017-12-04T23:05:26.344Z,26.62
2017-12-04T23:07:54.671Z,26.37
2017-12-04T23:10:22.141Z,27.75
2017-12-04T23:12:49.629Z,20.10
2017-12-04T23:15:17.882Z,28.30
2017-12-04T23:17:45.420Z,27.77
2017-12-04T23:20:12.896Z,28.77
2017-12-04T23:22:40.385Z,30.77
2017-12-04T23:25:08.628Z,32.67
2017-12-04T23:27:36.119Z,27.10
2017-12-04T23:30:04.393Z,31.67
2017-12-04T23:32:31.862Z,31.50
2017-12-04T23:40:55.182Z,31.10
2017-12-04T23:43:22.667Z,40.40
2017-12-04T23:45:50.153Z,29.60
2017-12-04T23:48:17.643Z,24.05
2017-12-04T23:50:45.161Z,18.48
2017-12-04T23:53:12.629Z,29.65
2017-12-04T23:55:40.122Z,23.90
2017-12-04T23:58:07.671Z,25.25
